sensor_id;sensor_type;location;lat;lon;timestamp;P1;durP1;ratioP1;P2;durP2;ratioP2
15635;SDS011;7917;50.818;6.972;2022-11-15T00:00:47;16.27;;;10.88;;
15635;SDS011;7917;50.818;6.972;2022-11-15T00:03:15;14.27;;;9.82;;
15635;SDS011;7917;50.818;6.972;2022-11-15T00:05:43;17.90;;;10.63;;
15635;SDS011;7917;50.818;6.972;2022-11-15T00:08:11;19.38;;;10.95;;
15635;SDS011;7917;50.818;6.972;2022-11-15T00:10:38;15.45;;;10.10;;
15635;SDS011;7917;50.818;6.972;2022-11-15T00:13:06;18.08;;;10.05;;
15635;SDS011;7917;50.818;6.972;2022-11-15T00:15:36;12.75;;;8.85;;
15635;SDS011;7917;50.818;6.972;2022-11-15T00:18:04;13.52;;;9.55;;
15635;SDS011;7917;50.818;6.972;2022-11-15T00:20:33;13.20;;;9.80;;
15635;SDS011;7917;50.818;6.972;2022-11-15T00:23:02;14.73;;;9.82;;
15635;SDS011;7917;50.818;6.972;2022-11-15T00:25:30;11.05;;;9.10;;
15635;SDS011;7917;50.818;6.972;2022-11-15T00:27:57;11.77;;;9.10;;
15635;SDS011;7917;50.818;6.972;2022-11-15T00:30:26;11.68;;;8.85;;
15635;SDS011;7917;50.818;6.972;2022-11-15T00:32:55;11.85;;;8.70;;
15635;SDS011;7917;50.818;6.972;2022-11-15T00:35:24;14.10;;;9.02;;
15635;SDS011;7917;50.818;6.972;2022-11-15T00:37:52;14.63;;;10.05;;
15635;SDS011;7917;50.818;6.972;2022-11-15T00:40:19;14.27;;;9.20;;
15635;SDS011;7917;50.818;6.972;2022-11-15T00:42:47;12.55;;;9.80;;
15635;SDS011;7917;50.818;6.972;2022-11-15T00:45:14;13.10;;;9.57;;
15635;SDS011;7917;50.818;6.972;2022-11-15T00:47:43;12.38;;;9.32;;
15635;SDS011;7917;50.818;6.972;2022-11-15T00:50:12;14.73;;;9.52;;
15635;SDS011;7917;50.818;6.972;2022-11-15T00:52:40;13.40;;;8.90;;
15635;SDS011;7917;50.818;6.972;2022-11-15T00:55:08;13.70;;;9.57;;
15635;SDS011;7917;50.818;6.972;2022-11-15T00:57:39;13.25;;;8.88;;
15635;SDS011;7917;50.818;6.972;2022-11-15T01:00:07;12.23;;;9.02;;
15635;SDS011;7917;50.818;6.972;2022-11-15T01:02:35;12.20;;;8.77;;
15635;SDS011;7917;50.818;6.972;2022-11-15T01:05:03;14.32;;;9.93;;
15635;SDS011;7917;50.818;6.972;2022-11-15T01:07:32;11.30;;;8.80;;
15635;SDS011;7917;50.818;6.972;2022-11-15T01:10:00;14.50;;;10.00;;
15635;SDS011;7917;50.818;6.972;2022-11-15T01:12:30;15.43;;;10.40;;
15635;SDS011;7917;50.818;6.972;2022-11-15T01:14:58;14.77;;;10.13;;
15635;SDS011;7917;50.818;6.972;2022-11-15T01:17:25;14.07;;;10.10;;
15635;SDS011;7917;50.818;6.972;2022-11-15T01:19:52;14.32;;;9.60;;
15635;SDS011;7917;50.818;6.972;2022-11-15T01:22:19;13.88;;;9.65;;
15635;SDS011;7917;50.818;6.972;2022-11-15T01:24:48;14.00;;;9.85;;
15635;SDS011;7917;50.818;6.972;2022-11-15T01:27:16;13.52;;;9.15;;
15635;SDS011;7917;50.818;6.972;2022-11-15T01:29:49;12.68;;;9.75;;
15635;SDS011;7917;50.818;6.972;2022-11-15T01:32:16;14.90;;;9.48;;
15635;SDS011;7917;50.818;6.972;2022-11-15T01:34:43;14.60;;;9.77;;
15635;SDS011;7917;50.818;6.972;2022-11-15T01:37:11;12.93;;;10.00;;
15635;SDS011;7917;50.818;6.972;2022-11-15T01:39:38;13.63;;;9.07;;
15635;SDS011;7917;50.818;6.972;2022-11-15T01:42:09;13.52;;;9.88;;
15635;SDS011;7917;50.818;6.972;2022-11-15T01:44:41;12.57;;;8.90;;
15635;SDS011;7917;50.818;6.972;2022-11-15T01:47:12;11.05;;;8.95;;
15635;SDS011;7917;50.818;6.972;2022-11-15T01:49:45;13.35;;;9.35;;
15635;SDS011;7917;50.818;6.972;2022-11-15T01:52:18;14.05;;;8.68;;
15635;SDS011;7917;50.818;6.972;2022-11-15T01:54:48;11.25;;;8.68;;
15635;SDS011;7917;50.818;6.972;2022-11-15T01:57:21;9.98;;;8.52;;
15635;SDS011;7917;50.818;6.972;2022-11-15T01:59:48;10.40;;;8.00;;
15635;SDS011;7917;50.818;6.972;2022-11-15T02:02:17;10.55;;;8.02;;
15635;SDS011;7917;50.818;6.972;2022-11-15T02:04:45;11.50;;;8.13;;
15635;SDS011;7917;50.818;6.972;2022-11-15T02:07:15;13.05;;;10.35;;
15635;SDS011;7917;50.818;6.972;2022-11-15T02:09:43;10.02;;;8.68;;
15635;SDS011;7917;50.818;6.972;2022-11-15T02:12:12;12.90;;;9.80;;
15635;SDS011;7917;50.818;6.972;2022-11-15T02:14:44;12.07;;;9.75;;
15635;SDS011;7917;50.818;6.972;2022-11-15T02:17:25;18.75;;;9.90;;
15635;SDS011;7917;50.818;6.972;2022-11-15T02:20:15;14.40;;;9.65;;
15635;SDS011;7917;50.818;6.972;2022-11-15T02:23:22;12.55;;;9.45;;
15635;SDS011;7917;50.818;6.972;2022-11-15T02:26:18;13.35;;;9.18;;
15635;SDS011;7917;50.818;6.972;2022-11-15T02:29:10;11.60;;;9.13;;
15635;SDS011;7917;50.818;6.972;2022-11-15T02:31:44;13.43;;;9.57;;
15635;SDS011;7917;50.818;6.972;2022-11-15T02:34:20;14.15;;;7.93;;
15635;SDS011;7917;50.818;6.972;2022-11-15T02:36:58;13.50;;;7.97;;
15635;SDS011;7917;50.818;6.972;2022-11-15T02:39:35;12.35;;;8.60;;
15635;SDS011;7917;50.818;6.972;2022-11-15T02:42:11;10.63;;;7.97;;
15635;SDS011;7917;50.818;6.972;2022-11-15T02:45:01;9.40;;;8.35;;
15635;SDS011;7917;50.818;6.972;2022-11-15T02:47:34;10.43;;;8.05;;
15635;SDS011;7917;50.818;6.972;2022-11-15T02:50:06;11.82;;;7.75;;
15635;SDS011;7917;50.818;6.972;2022-11-15T02:52:35;9.23;;;7.70;;
15635;SDS011;7917;50.818;6.972;2022-11-15T02:55:03;10.32;;;7.80;;
15635;SDS011;7917;50.818;6.972;2022-11-15T02:57:35;9.35;;;7.25;;
15635;SDS011;7917;50.818;6.972;2022-11-15T03:00:13;8.75;;;7.68;;
15635;SDS011;7917;50.818;6.972;2022-11-15T03:02:49;9.98;;;7.03;;
15635;SDS011;7917;50.818;6.972;2022-11-15T03:05:36;9.48;;;7.70;;
15635;SDS011;7917;50.818;6.972;2022-11-15T03:08:08;8.88;;;7.30;;
15635;SDS011;7917;50.818;6.972;2022-11-15T03:10:42;13.23;;;7.60;;
15635;SDS011;7917;50.818;6.972;2022-11-15T03:13:21;12.07;;;7.25;;
15635;SDS011;7917;50.818;6.972;2022-11-15T03:15:54;9.05;;;7.50;;
15635;SDS011;7917;50.818;6.972;2022-11-15T03:18:30;8.77;;;7.10;;
15635;SDS011;7917;50.818;6.972;2022-11-15T03:21:01;9.02;;;7.25;;
15635;SDS011;7917;50.818;6.972;2022-11-15T03:23:32;9.75;;;7.18;;
15635;SDS011;7917;50.818;6.972;2022-11-15T03:26:03;9.80;;;7.50;;
15635;SDS011;7917;50.818;6.972;2022-11-15T03:28:34;8.25;;;7.22;;
15635;SDS011;7917;50.818;6.972;2022-11-15T03:31:05;9.60;;;6.90;;
15635;SDS011;7917;50.818;6.972;2022-11-15T03:33:51;9.45;;;7.38;;
15635;SDS011;7917;50.818;6.972;2022-11-15T03:36:23;10.00;;;7.05;;
15635;SDS011;7917;50.818;6.972;2022-11-15T03:38:53;8.85;;;7.43;;
15635;SDS011;7917;50.818;6.972;2022-11-15T03:41:23;11.60;;;7.25;;
15635;SDS011;7917;50.818;6.972;2022-11-15T03:43:57;10.05;;;7.60;;
15635;SDS011;7917;50.818;6.972;2022-11-15T03:46:31;9.68;;;7.38;;
15635;SDS011;7917;50.818;6.972;2022-11-15T03:49:05;10.50;;;7.43;;
15635;SDS011;7917;50.818;6.972;2022-11-15T03:51:38;8.68;;;7.45;;
15635;SDS011;7917;50.818;6.972;2022-11-15T03:54:06;11.57;;;7.32;;
15635;SDS011;7917;50.818;6.972;2022-11-15T03:56:33;10.82;;;7.60;;
15635;SDS011;7917;50.818;6.972;2022-11-15T03:59:03;11.82;;;8.18;;
15635;SDS011;7917;50.818;6.972;2022-11-15T04:01:31;9.65;;;7.07;;
15635;SDS011;7917;50.818;6.972;2022-11-15T04:03:58;7.45;;;6.65;;
15635;SDS011;7917;50.818;6.972;2022-11-15T04:06:27;9.68;;;7.18;;
15635;SDS011;7917;50.818;6.972;2022-11-15T04:08:54;8.90;;;6.90;;
15635;SDS011;7917;50.818;6.972;2022-11-15T04:11:22;8.20;;;5.95;;
15635;SDS011;7917;50.818;6.972;2022-11-15T04:13:49;10.48;;;7.15;;
15635;SDS011;7917;50.818;6.972;2022-11-15T04:16:17;9.63;;;7.07;;
15635;SDS011;7917;50.818;6.972;2022-11-15T04:18:45;9.30;;;6.70;;
15635;SDS011;7917;50.818;6.972;2022-11-15T04:21:34;10.50;;;7.55;;
15635;SDS011;7917;50.818;6.972;2022-11-15T04:24:19;8.40;;;6.47;;
15635;SDS011;7917;50.818;6.972;2022-11-15T04:26:46;8.48;;;7.18;;
15635;SDS011;7917;50.818;6.972;2022-11-15T04:29:13;12.23;;;8.57;;
15635;SDS011;7917;50.818;6.972;2022-11-15T04:31:58;9.52;;;7.70;;
15635;SDS011;7917;50.818;6.972;2022-11-15T04:34:25;10.80;;;8.07;;
15635;SDS011;7917;50.818;6.972;2022-11-15T04:36:54;9.18;;;7.32;;
15635;SDS011;7917;50.818;6.972;2022-11-15T04:39:42;10.00;;;7.00;;
15635;SDS011;7917;50.818;6.972;2022-11-15T04:42:09;10.45;;;7.82;;
15635;SDS011;7917;50.818;6.972;2022-11-15T04:44:37;10.38;;;7.30;;
15635;SDS011;7917;50.818;6.972;2022-11-15T04:47:05;12.80;;;7.90;;
15635;SDS011;7917;50.818;6.972;2022-11-15T04:49:32;8.18;;;7.20;;
15635;SDS011;7917;50.818;6.972;2022-11-15T04:52:01;10.85;;;7.53;;
15635;SDS011;7917;50.818;6.972;2022-11-15T04:54:30;9.07;;;6.97;;
15635;SDS011;7917;50.818;6.972;2022-11-15T04:56:57;9.90;;;7.10;;
15635;SDS011;7917;50.818;6.972;2022-11-15T04:59:24;10.77;;;7.18;;
15635;SDS011;7917;50.818;6.972;2022-11-15T05:01:51;9.82;;;7.05;;
15635;SDS011;7917;50.818;6.972;2022-11-15T05:04:19;9.27;;;7.10;;
15635;SDS011;7917;50.818;6.972;2022-11-15T05:06:45;11.35;;;7.72;;
15635;SDS011;7917;50.818;6.972;2022-11-15T05:09:15;8.70;;;7.28;;
15635;SDS011;7917;50.818;6.972;2022-11-15T05:11:43;8.32;;;6.85;;
15635;SDS011;7917;50.818;6.972;2022-11-15T05:14:11;8.80;;;6.75;;
15635;SDS011;7917;50.818;6.972;2022-11-15T05:16:39;13.48;;;7.70;;
15635;SDS011;7917;50.818;6.972;2022-11-15T05:19:07;9.05;;;7.47;;
15635;SDS011;7917;50.818;6.972;2022-11-15T05:21:34;8.35;;;7.13;;
15635;SDS011;7917;50.818;6.972;2022-11-15T05:24:02;10.93;;;6.95;;
15635;SDS011;7917;50.818;6.972;2022-11-15T05:26:31;8.88;;;6.93;;
15635;SDS011;7917;50.818;6.972;2022-11-15T05:28:58;12.98;;;7.35;;
15635;SDS011;7917;50.818;6.972;2022-11-15T05:31:26;8.15;;;6.65;;
15635;SDS011;7917;50.818;6.972;2022-11-15T05:33:54;8.75;;;7.00;;
15635;SDS011;7917;50.818;6.972;2022-11-15T05:36:25;11.32;;;6.95;;
15635;SDS011;7917;50.818;6.972;2022-11-15T05:38:58;9.65;;;6.45;;
15635;SDS011;7917;50.818;6.972;2022-11-15T05:41:26;7.60;;;6.78;;
15635;SDS011;7917;50.818;6.972;2022-11-15T05:43:58;7.00;;;5.18;;
15635;SDS011;7917;50.818;6.972;2022-11-15T05:46:26;6.20;;;5.20;;
15635;SDS011;7917;50.818;6.972;2022-11-15T05:48:54;8.38;;;5.60;;
15635;SDS011;7917;50.818;6.972;2022-11-15T05:51:27;5.60;;;4.40;;
15635;SDS011;7917;50.818;6.972;2022-11-15T05:53:56;8.23;;;5.13;;
15635;SDS011;7917;50.818;6.972;2022-11-15T05:56:25;6.97;;;4.85;;
15635;SDS011;7917;50.818;6.972;2022-11-15T05:58:52;7.32;;;5.03;;
15635;SDS011;7917;50.818;6.972;2022-11-15T06:01:23;6.10;;;5.32;;
15635;SDS011;7917;50.818;6.972;2022-11-15T06:03:52;7.70;;;5.35;;
15635;SDS011;7917;50.818;6.972;2022-11-15T06:06:19;8.02;;;5.70;;
15635;SDS011;7917;50.818;6.972;2022-11-15T06:08:50;6.47;;;5.00;;
15635;SDS011;7917;50.818;6.972;2022-11-15T06:11:18;6.70;;;5.03;;
15635;SDS011;7917;50.818;6.972;2022-11-15T06:13:45;6.43;;;4.50;;
15635;SDS011;7917;50.818;6.972;2022-11-15T06:16:13;4.60;;;3.47;;
15635;SDS011;7917;50.818;6.972;2022-11-15T06:18:45;5.15;;;3.28;;
15635;SDS011;7917;50.818;6.972;2022-11-15T06:21:13;2.75;;;2.55;;
15635;SDS011;7917;50.818;6.972;2022-11-15T06:23:54;4.82;;;3.50;;
15635;SDS011;7917;50.818;6.972;2022-11-15T06:26:22;5.45;;;4.15;;
15635;SDS011;7917;50.818;6.972;2022-11-15T06:28:49;6.53;;;4.97;;
15635;SDS011;7917;50.818;6.972;2022-11-15T06:31:16;6.25;;;4.72;;
15635;SDS011;7917;50.818;6.972;2022-11-15T06:33:43;6.53;;;5.20;;
15635;SDS011;7917;50.818;6.972;2022-11-15T06:36:14;6.97;;;5.65;;
15635;SDS011;7917;50.818;6.972;2022-11-15T06:38:42;6.05;;;5.07;;
15635;SDS011;7917;50.818;6.972;2022-11-15T06:41:10;7.75;;;5.60;;
15635;SDS011;7917;50.818;6.972;2022-11-15T06:43:38;6.97;;;5.60;;
15635;SDS011;7917;50.818;6.972;2022-11-15T06:46:06;6.90;;;5.38;;
15635;SDS011;7917;50.818;6.972;2022-11-15T06:48:34;8.63;;;5.00;;
15635;SDS011;7917;50.818;6.972;2022-11-15T06:51:09;6.22;;;5.03;;
15635;SDS011;7917;50.818;6.972;2022-11-15T06:53:36;5.32;;;4.60;;
15635;SDS011;7917;50.818;6.972;2022-11-15T06:56:04;7.13;;;5.38;;
15635;SDS011;7917;50.818;6.972;2022-11-15T06:58:33;7.05;;;5.20;;
15635;SDS011;7917;50.818;6.972;2022-11-15T07:01:01;6.43;;;5.10;;
15635;SDS011;7917;50.818;6.972;2022-11-15T07:03:30;6.78;;;4.70;;
15635;SDS011;7917;50.818;6.972;2022-11-15T07:05:57;8.15;;;3.92;;
15635;SDS011;7917;50.818;6.972;2022-11-15T07:08:26;7.80;;;4.28;;
15635;SDS011;7917;50.818;6.972;2022-11-15T07:10:54;6.18;;;4.00;;
15635;SDS011;7917;50.818;6.972;2022-11-15T07:13:24;7.13;;;4.28;;
15635;SDS011;7917;50.818;6.972;2022-11-15T07:15:52;3.58;;;3.10;;
15635;SDS011;7917;50.818;6.972;2022-11-15T07:18:19;3.40;;;3.10;;
15635;SDS011;7917;50.818;6.972;2022-11-15T07:20:46;5.50;;;3.95;;
15635;SDS011;7917;50.818;6.972;2022-11-15T07:23:14;3.15;;;2.83;;
15635;SDS011;7917;50.818;6.972;2022-11-15T07:25:42;3.92;;;2.88;;
15635;SDS011;7917;50.818;6.972;2022-11-15T07:28:10;3.38;;;2.58;;
15635;SDS011;7917;50.818;6.972;2022-11-15T07:30:37;4.05;;;2.70;;
15635;SDS011;7917;50.818;6.972;2022-11-15T07:33:04;4.30;;;2.60;;
15635;SDS011;7917;50.818;6.972;2022-11-15T07:35:32;4.53;;;2.60;;
15635;SDS011;7917;50.818;6.972;2022-11-15T07:38:00;3.58;;;2.65;;
15635;SDS011;7917;50.818;6.972;2022-11-15T07:40:29;4.32;;;2.95;;
15635;SDS011;7917;50.818;6.972;2022-11-15T07:43:02;5.32;;;2.85;;
15635;SDS011;7917;50.818;6.972;2022-11-15T07:45:32;3.92;;;2.85;;
15635;SDS011;7917;50.818;6.972;2022-11-15T07:48:00;5.25;;;3.28;;
15635;SDS011;7917;50.818;6.972;2022-11-15T07:50:31;4.70;;;3.70;;
15635;SDS011;7917;50.818;6.972;2022-11-15T07:52:59;4.07;;;3.15;;
15635;SDS011;7917;50.818;6.972;2022-11-15T07:55:27;6.05;;;4.43;;
15635;SDS011;7917;50.818;6.972;2022-11-15T07:58:02;9.32;;;3.92;;
15635;SDS011;7917;50.818;6.972;2022-11-15T08:00:32;5.53;;;4.45;;
15635;SDS011;7917;50.818;6.972;2022-11-15T08:03:03;4.65;;;3.58;;
15635;SDS011;7917;50.818;6.972;2022-11-15T08:05:31;4.43;;;3.38;;
15635;SDS011;7917;50.818;6.972;2022-11-15T08:07:58;5.28;;;3.10;;
15635;SDS011;7917;50.818;6.972;2022-11-15T08:10:26;5.00;;;3.40;;
15635;SDS011;7917;50.818;6.972;2022-11-15T08:12:57;4.53;;;3.72;;
15635;SDS011;7917;50.818;6.972;2022-11-15T08:15:26;7.18;;;3.95;;
15635;SDS011;7917;50.818;6.972;2022-11-15T08:17:55;4.30;;;3.60;;
15635;SDS011;7917;50.818;6.972;2022-11-15T08:20:22;5.10;;;3.95;;
15635;SDS011;7917;50.818;6.972;2022-11-15T08:22:50;5.20;;;3.72;;
15635;SDS011;7917;50.818;6.972;2022-11-15T08:25:18;4.47;;;3.45;;
15635;SDS011;7917;50.818;6.972;2022-11-15T08:27:50;3.40;;;2.70;;
15635;SDS011;7917;50.818;6.972;2022-11-15T08:30:20;3.90;;;2.60;;
15635;SDS011;7917;50.818;6.972;2022-11-15T08:32:50;3.97;;;2.53;;
15635;SDS011;7917;50.818;6.972;2022-11-15T08:35:18;6.35;;;2.95;;
15635;SDS011;7917;50.818;6.972;2022-11-15T08:37:46;3.38;;;2.47;;
15635;SDS011;7917;50.818;6.972;2022-11-15T08:40:14;4.53;;;2.75;;
15635;SDS011;7917;50.818;6.972;2022-11-15T08:42:42;3.47;;;2.60;;
15635;SDS011;7917;50.818;6.972;2022-11-15T08:45:12;4.30;;;2.28;;
15635;SDS011;7917;50.818;6.972;2022-11-15T08:47:40;3.22;;;2.70;;
15635;SDS011;7917;50.818;6.972;2022-11-15T08:50:09;3.42;;;2.67;;
15635;SDS011;7917;50.818;6.972;2022-11-15T08:52:36;3.42;;;2.30;;
15635;SDS011;7917;50.818;6.972;2022-11-15T08:55:04;2.55;;;2.35;;
15635;SDS011;7917;50.818;6.972;2022-11-15T08:57:32;2.50;;;2.15;;
15635;SDS011;7917;50.818;6.972;2022-11-15T08:59:59;4.53;;;2.42;;
15635;SDS011;7917;50.818;6.972;2022-11-15T09:02:27;4.63;;;2.38;;
15635;SDS011;7917;50.818;6.972;2022-11-15T09:04:55;4.82;;;2.55;;
15635;SDS011;7917;50.818;6.972;2022-11-15T09:07:24;4.15;;;2.13;;
15635;SDS011;7917;50.818;6.972;2022-11-15T09:09:51;3.17;;;2.15;;
15635;SDS011;7917;50.818;6.972;2022-11-15T09:12:18;2.05;;;1.70;;
15635;SDS011;7917;50.818;6.972;2022-11-15T09:14:46;2.85;;;1.45;;
15635;SDS011;7917;50.818;6.972;2022-11-15T09:17:13;4.65;;;2.10;;
15635;SDS011;7917;50.818;6.972;2022-11-15T09:19:40;3.80;;;1.80;;
15635;SDS011;7917;50.818;6.972;2022-11-15T09:22:07;2.80;;;1.40;;
15635;SDS011;7917;50.818;6.972;2022-11-15T09:24:36;2.60;;;1.90;;
15635;SDS011;7917;50.818;6.972;2022-11-15T09:27:03;2.83;;;1.88;;
15635;SDS011;7917;50.818;6.972;2022-11-15T09:29:31;2.30;;;1.75;;
15635;SDS011;7917;50.818;6.972;2022-11-15T09:31:58;4.45;;;1.60;;
15635;SDS011;7917;50.818;6.972;2022-11-15T09:34:26;1.45;;;1.30;;
15635;SDS011;7917;50.818;6.972;2022-11-15T09:36:53;2.40;;;1.33;;
15635;SDS011;7917;50.818;6.972;2022-11-15T09:39:20;3.83;;;1.80;;
15635;SDS011;7917;50.818;6.972;2022-11-15T09:41:52;2.30;;;1.50;;
15635;SDS011;7917;50.818;6.972;2022-11-15T09:44:55;1.42;;;1.20;;
15635;SDS011;7917;50.818;6.972;2022-11-15T09:47:38;3.47;;;1.50;;
15635;SDS011;7917;50.818;6.972;2022-11-15T09:50:32;3.85;;;1.38;;
15635;SDS011;7917;50.818;6.972;2022-11-15T09:53:08;2.90;;;1.23;;
15635;SDS011;7917;50.818;6.972;2022-11-15T09:55:45;3.42;;;1.23;;
15635;SDS011;7917;50.818;6.972;2022-11-15T09:58:24;3.47;;;2.13;;
15635;SDS011;7917;50.818;6.972;2022-11-15T10:01:00;1.80;;;1.50;;
15635;SDS011;7917;50.818;6.972;2022-11-15T10:03:34;3.10;;;1.13;;
15635;SDS011;7917;50.818;6.972;2022-11-15T10:06:04;4.93;;;2.00;;
15635;SDS011;7917;50.818;6.972;2022-11-15T10:08:37;3.58;;;1.77;;
15635;SDS011;7917;50.818;6.972;2022-11-15T10:11:15;2.33;;;1.38;;
15635;SDS011;7917;50.818;6.972;2022-11-15T10:13:47;2.20;;;1.38;;
15635;SDS011;7917;50.818;6.972;2022-11-15T10:16:37;3.97;;;1.85;;
15635;SDS011;7917;50.818;6.972;2022-11-15T10:19:20;3.35;;;1.40;;
15635;SDS011;7917;50.818;6.972;2022-11-15T10:21:54;1.63;;;1.05;;
15635;SDS011;7917;50.818;6.972;2022-11-15T10:24:27;3.33;;;1.70;;
15635;SDS011;7917;50.818;6.972;2022-11-15T10:26:57;2.83;;;1.40;;
15635;SDS011;7917;50.818;6.972;2022-11-15T10:29:26;1.67;;;1.42;;
15635;SDS011;7917;50.818;6.972;2022-11-15T10:31:54;2.97;;;1.00;;
15635;SDS011;7917;50.818;6.972;2022-11-15T10:34:21;2.00;;;1.30;;
15635;SDS011;7917;50.818;6.972;2022-11-15T10:36:54;2.13;;;1.10;;
15635;SDS011;7917;50.818;6.972;2022-11-15T10:39:22;3.97;;;1.17;;
15635;SDS011;7917;50.818;6.972;2022-11-15T10:41:50;3.22;;;0.90;;
15635;SDS011;7917;50.818;6.972;2022-11-15T10:44:22;1.27;;;0.98;;
15635;SDS011;7917;50.818;6.972;2022-11-15T10:50:00;4.47;;;1.45;;
15635;SDS011;7917;50.818;6.972;2022-11-15T10:52:30;3.17;;;1.52;;
15635;SDS011;7917;50.818;6.972;2022-11-15T10:55:01;1.65;;;1.00;;
15635;SDS011;7917;50.818;6.972;2022-11-15T10:57:48;0.95;;;0.80;;
15635;SDS011;7917;50.818;6.972;2022-11-15T11:00:26;5.47;;;1.15;;
15635;SDS011;7917;50.818;6.972;2022-11-15T11:02:59;2.75;;;1.10;;
15635;SDS011;7917;50.818;6.972;2022-11-15T11:05:29;1.98;;;0.80;;
15635;SDS011;7917;50.818;6.972;2022-11-15T11:08:00;4.32;;;0.80;;
15635;SDS011;7917;50.818;6.972;2022-11-15T11:10:29;6.13;;;2.40;;
15635;SDS011;7917;50.818;6.972;2022-11-15T11:13:11;2.55;;;1.30;;
15635;SDS011;7917;50.818;6.972;2022-11-15T11:15:41;1.65;;;1.25;;
15635;SDS011;7917;50.818;6.972;2022-11-15T11:18:15;2.25;;;1.23;;
15635;SDS011;7917;50.818;6.972;2022-11-15T11:20:56;3.90;;;1.17;;
15635;SDS011;7917;50.818;6.972;2022-11-15T11:23:41;3.53;;;1.45;;
15635;SDS011;7917;50.818;6.972;2022-11-15T11:26:40;3.97;;;0.98;;
15635;SDS011;7917;50.818;6.972;2022-11-15T11:29:16;2.75;;;0.88;;
15635;SDS011;7917;50.818;6.972;2022-11-15T11:31:56;4.80;;;1.25;;
15635;SDS011;7917;50.818;6.972;2022-11-15T11:34:34;1.88;;;0.90;;
15635;SDS011;7917;50.818;6.972;2022-11-15T11:37:14;3.15;;;0.80;;
15635;SDS011;7917;50.818;6.972;2022-11-15T11:39:55;3.45;;;1.00;;
15635;SDS011;7917;50.818;6.972;2022-11-15T11:42:37;1.83;;;1.10;;
15635;SDS011;7917;50.818;6.972;2022-11-15T11:45:15;2.75;;;1.00;;
15635;SDS011;7917;50.818;6.972;2022-11-15T11:47:46;3.10;;;0.90;;
15635;SDS011;7917;50.818;6.972;2022-11-15T11:50:25;6.75;;;0.90;;
15635;SDS011;7917;50.818;6.972;2022-11-15T11:52:57;2.30;;;1.10;;
15635;SDS011;7917;50.818;6.972;2022-11-15T11:55:32;2.92;;;1.13;;
15635;SDS011;7917;50.818;6.972;2022-11-15T11:58:06;2.88;;;1.45;;
15635;SDS011;7917;50.818;6.972;2022-11-15T12:00:40;2.80;;;1.48;;
15635;SDS011;7917;50.818;6.972;2022-11-15T12:03:13;3.40;;;1.13;;
15635;SDS011;7917;50.818;6.972;2022-11-15T12:05:48;2.60;;;1.58;;
15635;SDS011;7917;50.818;6.972;2022-11-15T12:08:25;5.85;;;1.52;;
15635;SDS011;7917;50.818;6.972;2022-11-15T12:11:00;2.83;;;1.23;;
15635;SDS011;7917;50.818;6.972;2022-11-15T12:13:34;2.65;;;1.15;;
15635;SDS011;7917;50.818;6.972;2022-11-15T12:16:05;2.28;;;1.30;;
15635;SDS011;7917;50.818;6.972;2022-11-15T12:18:39;2.88;;;1.55;;
15635;SDS011;7917;50.818;6.972;2022-11-15T12:21:13;2.55;;;1.20;;
15635;SDS011;7917;50.818;6.972;2022-11-15T12:23:48;3.85;;;1.50;;
15635;SDS011;7917;50.818;6.972;2022-11-15T12:26:20;1.20;;;1.02;;
15635;SDS011;7917;50.818;6.972;2022-11-15T12:28:50;2.63;;;1.25;;
15635;SDS011;7917;50.818;6.972;2022-11-15T12:31:31;2.47;;;1.48;;
15635;SDS011;7917;50.818;6.972;2022-11-15T12:34:05;3.58;;;1.40;;
15635;SDS011;7917;50.818;6.972;2022-11-15T12:36:43;5.50;;;1.45;;
15635;SDS011;7917;50.818;6.972;2022-11-15T12:39:12;3.75;;;1.40;;
15635;SDS011;7917;50.818;6.972;2022-11-15T12:41:40;2.83;;;1.38;;
15635;SDS011;7917;50.818;6.972;2022-11-15T12:44:10;2.13;;;1.05;;
15635;SDS011;7917;50.818;6.972;2022-11-15T12:49:43;2.80;;;1.33;;
15635;SDS011;7917;50.818;6.972;2022-11-15T12:52:12;2.20;;;1.40;;
15635;SDS011;7917;50.818;6.972;2022-11-15T12:54:53;3.00;;;1.40;;
15635;SDS011;7917;50.818;6.972;2022-11-15T13:03:18;3.40;;;1.70;;
15635;SDS011;7917;50.818;6.972;2022-11-15T13:06:04;7.03;;;1.60;;
15635;SDS011;7917;50.818;6.972;2022-11-15T13:08:41;3.17;;;1.80;;
15635;SDS011;7917;50.818;6.972;2022-11-15T13:17:25;3.25;;;2.00;;
15635;SDS011;7917;50.818;6.972;2022-11-15T13:20:15;4.80;;;2.58;;
15635;SDS011;7917;50.818;6.972;2022-11-15T13:22:53;3.25;;;2.28;;
15635;SDS011;7917;50.818;6.972;2022-11-15T13:28:32;4.95;;;2.70;;
15635;SDS011;7917;50.818;6.972;2022-11-15T13:31:12;8.15;;;2.72;;
15635;SDS011;7917;50.818;6.972;2022-11-15T13:33:58;10.57;;;2.88;;
15635;SDS011;7917;50.818;6.972;2022-11-15T13:36:29;3.40;;;2.65;;
15635;SDS011;7917;50.818;6.972;2022-11-15T13:39:00;5.63;;;2.90;;
15635;SDS011;7917;50.818;6.972;2022-11-15T13:41:31;3.05;;;2.78;;
15635;SDS011;7917;50.818;6.972;2022-11-15T13:44:01;3.45;;;2.65;;
15635;SDS011;7917;50.818;6.972;2022-11-15T13:46:31;4.10;;;2.90;;
15635;SDS011;7917;50.818;6.972;2022-11-15T13:49:00;6.30;;;2.80;;
15635;SDS011;7917;50.818;6.972;2022-11-15T13:51:30;5.90;;;3.05;;
15635;SDS011;7917;50.818;6.972;2022-11-15T13:54:02;3.92;;;2.55;;
15635;SDS011;7917;50.818;6.972;2022-11-15T13:56:35;4.03;;;2.85;;
15635;SDS011;7917;50.818;6.972;2022-11-15T13:59:09;5.22;;;3.17;;
15635;SDS011;7917;50.818;6.972;2022-11-15T14:01:39;5.82;;;2.60;;
15635;SDS011;7917;50.818;6.972;2022-11-15T14:04:11;4.20;;;2.40;;
15635;SDS011;7917;50.818;6.972;2022-11-15T14:06:44;4.38;;;3.40;;
15635;SDS011;7917;50.818;6.972;2022-11-15T14:09:23;3.92;;;2.88;;
15635;SDS011;7917;50.818;6.972;2022-11-15T14:11:59;6.90;;;4.38;;
15635;SDS011;7917;50.818;6.972;2022-11-15T14:14:29;3.42;;;2.33;;
15635;SDS011;7917;50.818;6.972;2022-11-15T14:17:00;3.50;;;2.50;;
15635;SDS011;7917;50.818;6.972;2022-11-15T14:19:35;3.97;;;2.65;;
15635;SDS011;7917;50.818;6.972;2022-11-15T14:22:11;6.28;;;2.83;;
15635;SDS011;7917;50.818;6.972;2022-11-15T14:24:41;4.28;;;2.88;;
15635;SDS011;7917;50.818;6.972;2022-11-15T14:27:19;4.18;;;3.00;;
15635;SDS011;7917;50.818;6.972;2022-11-15T14:29:55;4.18;;;2.60;;
15635;SDS011;7917;50.818;6.972;2022-11-15T14:32:24;3.95;;;2.70;;
15635;SDS011;7917;50.818;6.972;2022-11-15T14:34:54;6.50;;;3.08;;
15635;SDS011;7917;50.818;6.972;2022-11-15T14:37:24;7.32;;;2.53;;
15635;SDS011;7917;50.818;6.972;2022-11-15T14:39:52;3.75;;;2.53;;
15635;SDS011;7917;50.818;6.972;2022-11-15T14:42:21;8.40;;;3.63;;
15635;SDS011;7917;50.818;6.972;2022-11-15T14:44:49;8.40;;;2.42;;
15635;SDS011;7917;50.818;6.972;2022-11-15T14:47:19;4.25;;;2.60;;
15635;SDS011;7917;50.818;6.972;2022-11-15T14:49:46;8.30;;;2.80;;
15635;SDS011;7917;50.818;6.972;2022-11-15T14:52:23;3.47;;;2.47;;
15635;SDS011;7917;50.818;6.972;2022-11-15T14:54:52;4.13;;;2.05;;
15635;SDS011;7917;50.818;6.972;2022-11-15T14:57:22;4.20;;;2.20;;
15635;SDS011;7917;50.818;6.972;2022-11-15T14:59:50;4.70;;;2.38;;
15635;SDS011;7917;50.818;6.972;2022-11-15T15:02:19;2.60;;;2.22;;
15635;SDS011;7917;50.818;6.972;2022-11-15T15:04:48;4.80;;;2.30;;
15635;SDS011;7917;50.818;6.972;2022-11-15T15:07:16;4.32;;;2.10;;
15635;SDS011;7917;50.818;6.972;2022-11-15T15:09:44;4.03;;;1.70;;
15635;SDS011;7917;50.818;6.972;2022-11-15T15:12:14;2.58;;;1.98;;
15635;SDS011;7917;50.818;6.972;2022-11-15T15:14:44;4.75;;;2.17;;
15635;SDS011;7917;50.818;6.972;2022-11-15T15:17:12;4.18;;;2.05;;
15635;SDS011;7917;50.818;6.972;2022-11-15T15:19:42;4.40;;;2.15;;
15635;SDS011;7917;50.818;6.972;2022-11-15T15:22:11;12.63;;;2.30;;
15635;SDS011;7917;50.818;6.972;2022-11-15T15:24:42;3.38;;;2.10;;
15635;SDS011;7917;50.818;6.972;2022-11-15T15:27:10;2.53;;;1.77;;
15635;SDS011;7917;50.818;6.972;2022-11-15T15:29:38;3.97;;;1.85;;
15635;SDS011;7917;50.818;6.972;2022-11-15T15:32:06;3.83;;;1.98;;
15635;SDS011;7917;50.818;6.972;2022-11-15T15:34:35;5.75;;;2.13;;
15635;SDS011;7917;50.818;6.972;2022-11-15T15:37:11;3.40;;;2.10;;
15635;SDS011;7917;50.818;6.972;2022-11-15T15:39:49;4.55;;;2.45;;
15635;SDS011;7917;50.818;6.972;2022-11-15T15:42:17;2.78;;;1.88;;
15635;SDS011;7917;50.818;6.972;2022-11-15T15:44:45;11.65;;;2.58;;